createdAt,value
2024-04-18T00:00:06.635Z,13.35
2024-04-18T00:02:39.338Z,13.33
2024-04-18T00:05:09.263Z,12.67
2024-04-18T00:07:35.922Z,12.40
2024-04-18T00:10:20.221Z,12.13
2024-04-18T00:12:47.200Z,13.50
2024-04-18T00:15:30.368Z,12.43
2024-04-18T00:18:02.772Z,12.10
2024-04-18T00:20:32.018Z,12.05
2024-04-18T00:23:17.641Z,13.55
2024-04-18T00:26:09.492Z,11.87
2024-04-18T00:28:56.356Z,11.43
2024-04-18T00:31:25.595Z,11.63
2024-04-18T00:33:58.065Z,10.53
2024-04-18T00:36:47.168Z,10.93
2024-04-18T00:39:22.995Z,11.05
2024-04-18T00:42:04.054Z,11.40
2024-04-18T00:44:30.670Z,11.20
2024-04-18T00:47:15.427Z,11.07
2024-04-18T00:50:04.340Z,11.63
2024-04-18T00:52:42.778Z,12.30
2024-04-18T00:55:24.854Z,11.25
2024-04-18T00:58:14.672Z,12.13
2024-04-18T01:00:42.230Z,12.63
2024-04-18T01:03:30.384Z,12.37
2024-04-18T01:06:06.894Z,11.87
2024-04-18T01:08:55.313Z,12.17
2024-04-18T01:11:31.097Z,11.90
2024-04-18T01:14:09.243Z,11.90
2024-04-18T01:16:54.203Z,11.80
2024-04-18T01:19:23.493Z,11.25
2024-04-18T01:21:50.135Z,11.70
2024-04-18T01:24:19.396Z,12.03
2024-04-18T01:26:48.662Z,11.77
2024-04-18T01:29:17.900Z,11.87
2024-04-18T01:32:03.378Z,12.00
2024-04-18T01:34:32.748Z,11.90
2024-04-18T01:37:15.022Z,12.07
2024-04-18T01:39:44.577Z,10.83
2024-04-18T01:42:14.088Z,11.98
2024-04-18T01:44:46.205Z,12.10
2024-04-18T01:47:31.696Z,11.83
2024-04-18T01:50:10.400Z,11.57
2024-04-18T01:52:37.196Z,11.13
2024-04-18T01:55:06.521Z,11.27
2024-04-18T01:57:39.015Z,10.97
2024-04-18T02:00:27.012Z,10.97
2024-04-18T02:02:53.661Z,11.13
2024-04-18T02:05:41.384Z,10.93
2024-04-18T02:08:13.812Z,12.03
2024-04-18T02:10:49.196Z,11.20
2024-04-18T02:13:39.567Z,11.57
2024-04-18T02:16:06.333Z,11.67
2024-04-18T02:18:54.199Z,11.57
2024-04-18T02:21:20.949Z,10.93
2024-04-18T02:23:56.328Z,12.57
2024-04-18T02:26:24.151Z,13.17
2024-04-18T02:28:56.233Z,13.07
2024-04-18T02:31:26.602Z,13.20
2024-04-18T02:33:55.935Z,13.03
2024-04-18T02:36:22.749Z,12.80
2024-04-18T02:38:51.969Z,13.33
2024-04-18T02:41:18.600Z,13.27
2024-04-18T02:43:51.706Z,14.27
2024-04-18T02:46:21.079Z,13.87
2024-04-18T02:49:08.961Z,15.50
2024-04-18T02:51:54.931Z,14.63
2024-04-18T02:54:43.032Z,14.93
2024-04-18T02:57:09.746Z,15.40
2024-04-18T02:59:38.979Z,15.27
2024-04-18T03:02:26.930Z,15.00
2024-04-18T03:05:14.670Z,14.80
2024-04-18T03:07:41.323Z,13.93
2024-04-18T03:10:10.675Z,14.20
2024-04-18T03:12:57.333Z,13.33
2024-04-18T03:15:47.253Z,13.83
2024-04-18T03:18:16.768Z,13.93
2024-04-18T03:20:54.526Z,14.33
2024-04-18T03:23:40.279Z,13.93
2024-04-18T03:26:09.546Z,13.87
2024-04-18T03:28:36.167Z,13.70
2024-04-18T03:31:08.764Z,14.03
2024-04-18T03:33:38.047Z,13.13
2024-04-18T03:36:07.371Z,14.37
2024-04-18T03:38:36.593Z,13.40
2024-04-18T03:41:05.822Z,13.50
2024-04-18T03:43:43.066Z,13.27
2024-04-18T03:46:12.273Z,13.23
2024-04-18T03:49:04.526Z,13.37
2024-04-18T03:51:31.530Z,12.37
2024-04-18T03:54:26.809Z,13.13
2024-04-18T03:56:53.810Z,13.27
2024-04-18T03:59:23.107Z,13.70
2024-04-18T04:01:49.779Z,13.33
2024-04-18T04:04:21.779Z,13.37
2024-04-18T04:06:48.615Z,12.77
2024-04-18T04:09:17.892Z,12.80
2024-04-18T04:11:44.499Z,13.07
2024-04-18T04:14:13.696Z,12.53
2024-04-18T04:16:55.264Z,12.50
2024-04-18T04:19:27.183Z,12.60
2024-04-18T04:21:54.482Z,13.40
2024-04-18T04:24:23.770Z,11.63
2024-04-18T04:26:50.481Z,10.93
2024-04-18T04:29:19.844Z,11.00
2024-04-18T04:31:46.552Z,10.17
2024-04-18T04:34:15.899Z,10.23
2024-04-18T04:36:45.319Z,9.23
2024-04-18T04:39:14.582Z,9.53
2024-04-18T04:41:41.573Z,8.93
2024-04-18T04:44:10.798Z,8.43
2024-04-18T04:46:49.779Z,7.83
2024-04-18T04:49:21.708Z,8.17
2024-04-18T04:52:03.459Z,8.40
2024-04-18T04:54:47.856Z,7.77
2024-04-18T04:57:15.267Z,7.83
2024-04-18T04:59:44.924Z,7.57
2024-04-18T05:02:11.734Z,7.27
2024-04-18T05:04:52.956Z,7.60
2024-04-18T05:07:34.553Z,7.27
2024-04-18T05:10:22.549Z,7.70
2024-04-18T05:12:49.454Z,8.30
2024-04-18T05:15:37.050Z,8.33
2024-04-18T05:18:04.484Z,8.50
2024-04-18T05:20:33.798Z,8.77
2024-04-18T05:23:03.155Z,8.83
2024-04-18T05:25:32.468Z,9.17
2024-04-18T05:28:22.163Z,9.20
2024-04-18T05:31:07.334Z,9.17
2024-04-18T05:33:36.975Z,9.07
2024-04-18T05:36:06.908Z,8.57
2024-04-18T05:38:38.810Z,8.10
2024-04-18T05:41:08.069Z,8.73
2024-04-18T05:43:52.235Z,8.90
2024-04-18T05:46:18.962Z,7.93
2024-04-18T05:48:48.502Z,7.80
2024-04-18T05:51:17.838Z,8.13
2024-04-18T05:54:18.855Z,7.57
2024-04-18T05:57:06.864Z,6.40
2024-04-18T05:59:54.508Z,6.27
2024-04-18T06:02:24.468Z,6.53
2024-04-18T06:04:54.073Z,6.50
2024-04-18T06:07:45.783Z,5.70
2024-04-18T06:10:18.444Z,6.33
2024-04-18T06:12:47.789Z,5.73
2024-04-18T06:15:17.386Z,7.77
2024-04-18T06:17:46.824Z,6.90
2024-04-18T06:20:16.456Z,6.50
2024-04-18T06:22:45.675Z,7.00
2024-04-18T06:25:30.672Z,7.27
2024-04-18T06:28:00.046Z,7.30
2024-04-18T06:30:29.554Z,6.90
2024-04-18T06:32:58.939Z,7.35
2024-04-18T06:35:28.339Z,6.53
2024-04-18T06:37:57.559Z,6.77
2024-04-18T06:40:29.364Z,6.93
2024-04-18T06:42:58.724Z,6.80
2024-04-18T06:45:27.950Z,6.77
2024-04-18T06:47:57.402Z,6.70
2024-04-18T06:50:27.299Z,6.27
2024-04-18T06:52:56.669Z,6.80
2024-04-18T06:55:28.635Z,6.30
2024-04-18T06:57:57.913Z,6.77
2024-04-18T07:00:27.172Z,6.70
2024-04-18T07:02:56.445Z,6.65
2024-04-18T07:05:47.829Z,6.83
2024-04-18T07:08:23.360Z,6.87
2024-04-18T07:10:55.230Z,6.43
2024-04-18T07:13:32.820Z,6.03
2024-04-18T07:16:04.448Z,6.13
2024-04-18T07:18:52.515Z,6.07
2024-04-18T07:21:21.947Z,5.70
2024-04-18T07:23:51.170Z,5.67
2024-04-18T07:26:41.487Z,5.20
2024-04-18T07:29:10.741Z,5.17
2024-04-18T07:31:40.052Z,4.70
2024-04-18T07:34:15.291Z,4.43
2024-04-18T07:36:44.615Z,4.50
2024-04-18T07:39:13.807Z,4.57
2024-04-18T07:41:45.614Z,4.53
2024-04-18T07:44:15.085Z,4.27
2024-04-18T07:46:45.371Z,4.33
2024-04-18T07:49:16.580Z,3.83
2024-04-18T07:51:46.356Z,4.00
2024-04-18T07:54:16.179Z,3.70
2024-04-18T07:56:50.162Z,4.10
2024-04-18T07:59:20.384Z,3.93
2024-04-18T08:01:51.388Z,3.40
2024-04-18T08:04:44.523Z,3.40
2024-04-18T08:07:13.237Z,3.80
2024-04-18T08:09:46.561Z,3.93
2024-04-18T08:12:26.961Z,4.03
2024-04-18T08:15:03.806Z,3.72
2024-04-18T08:17:36.780Z,3.43
2024-04-18T08:20:06.368Z,3.50
2024-04-18T08:22:35.597Z,2.90
2024-04-18T08:25:07.627Z,2.10
2024-04-18T08:27:39.630Z,2.07
2024-04-18T08:30:09.415Z,2.23
2024-04-18T08:32:38.857Z,2.50
2024-04-18T08:35:08.136Z,1.77
2024-04-18T08:37:37.335Z,1.97
2024-04-18T08:40:06.918Z,2.17
2024-04-18T08:42:38.823Z,2.27
2024-04-18T08:45:11.425Z,2.20
2024-04-18T08:47:42.070Z,2.33
2024-04-18T08:50:11.450Z,2.20
2024-04-18T08:52:41.866Z,2.17
2024-04-18T08:55:11.198Z,2.40
2024-04-18T08:57:45.290Z,2.40
2024-04-18T09:00:15.824Z,2.00
2024-04-18T09:02:43.025Z,2.00
2024-04-18T09:05:12.326Z,2.72
2024-04-18T09:07:41.549Z,2.17
2024-04-18T09:10:14.602Z,2.23
2024-04-18T09:12:46.492Z,2.40
2024-04-18T09:15:17.176Z,2.10
2024-04-18T09:17:46.689Z,2.55
2024-04-18T09:20:16.120Z,2.60
2024-04-18T09:22:45.381Z,2.90
2024-04-18T09:25:16.653Z,2.47
2024-04-18T09:27:49.437Z,2.33
2024-04-18T09:30:18.748Z,2.20
2024-04-18T09:32:48.089Z,2.67
2024-04-18T09:35:17.447Z,2.08
2024-04-18T09:37:53.173Z,1.83
2024-04-18T09:40:27.385Z,2.17
2024-04-18T09:43:03.292Z,1.90
2024-04-18T09:45:36.906Z,1.80
2024-04-18T09:48:07.268Z,2.90
2024-04-18T09:50:36.590Z,2.10
2024-04-18T09:53:05.897Z,1.70
2024-04-18T09:55:38.458Z,1.93
2024-04-18T09:58:11.700Z,1.57
2024-04-18T10:00:41.402Z,1.83
2024-04-18T10:03:11.784Z,1.45
2024-04-18T10:05:43.463Z,2.10
2024-04-18T10:08:12.994Z,1.58
2024-04-18T10:10:42.327Z,2.43
2024-04-18T10:13:16.414Z,2.63
2024-04-18T10:15:46.000Z,2.97
2024-04-18T10:18:15.905Z,2.10
2024-04-18T10:20:45.685Z,2.28
2024-04-18T10:23:15.018Z,1.92
2024-04-18T10:25:45.408Z,1.60
2024-04-18T10:28:27.529Z,1.67
2024-04-18T10:31:03.580Z,1.50
2024-04-18T10:33:33.255Z,1.60
2024-04-18T10:36:02.592Z,1.27
2024-04-18T10:38:34.527Z,2.28
2024-04-18T10:41:01.467Z,2.63
2024-04-18T10:43:33.365Z,2.20
2024-04-18T10:46:05.843Z,2.50
2024-04-18T10:48:35.126Z,1.92
2024-04-18T10:51:05.663Z,2.33
2024-04-18T10:53:35.906Z,2.33
2024-04-18T10:56:05.242Z,2.40
2024-04-18T10:58:37.237Z,2.20
2024-04-18T11:01:06.872Z,2.40
2024-04-18T11:03:36.458Z,1.40
2024-04-18T11:06:06.300Z,2.30
2024-04-18T11:08:35.973Z,2.45
2024-04-18T11:11:05.712Z,2.92
2024-04-18T11:13:37.669Z,2.67
2024-04-18T11:16:07.428Z,2.70
2024-04-18T11:18:36.809Z,2.40
2024-04-18T11:21:06.607Z,2.45
2024-04-18T11:23:44.254Z,2.13
2024-04-18T11:26:16.748Z,2.60
2024-04-18T11:28:49.148Z,2.67
2024-04-18T11:31:15.779Z,2.55
2024-04-18T11:33:45.193Z,2.60
2024-04-18T11:36:12.119Z,2.92
2024-04-18T11:38:41.313Z,3.08
2024-04-18T11:41:10.676Z,1.63
2024-04-18T11:43:39.930Z,1.50
2024-04-18T11:46:11.778Z,1.52
2024-04-18T11:48:41.085Z,1.92
2024-04-18T11:51:10.370Z,1.98
2024-04-18T11:53:39.551Z,1.75
2024-04-18T11:56:08.942Z,1.92
2024-04-18T11:58:38.143Z,1.63
2024-04-18T12:01:08.192Z,1.63
2024-04-18T12:03:43.743Z,1.58
2024-04-18T12:06:32.192Z,1.50
2024-04-18T12:09:01.469Z,1.20
2024-04-18T12:11:31.123Z,1.20
2024-04-18T12:14:15.850Z,1.60
2024-04-18T12:16:57.166Z,1.13
2024-04-18T12:19:55.099Z,1.10
2024-04-18T12:22:36.396Z,0.88
2024-04-18T12:25:15.009Z,0.95
2024-04-18T12:27:44.218Z,0.90
2024-04-18T12:30:32.044Z,1.08
2024-04-18T12:33:20.554Z,0.80
2024-04-18T12:35:53.192Z,0.90
2024-04-18T12:38:19.837Z,0.93
2024-04-18T12:40:49.131Z,0.70
2024-04-18T12:43:16.429Z,1.48
2024-04-18T12:46:06.858Z,0.85
2024-04-18T12:48:53.431Z,0.80
2024-04-18T12:51:25.760Z,0.70
2024-04-18T12:53:57.091Z,0.90
2024-04-18T12:56:48.712Z,0.80
2024-04-18T12:59:24.314Z,0.70
2024-04-18T13:01:51.011Z,0.98
2024-04-18T13:04:23.288Z,0.90
2024-04-18T13:06:55.452Z,0.90
2024-04-18T13:09:30.808Z,1.05
2024-04-18T13:12:03.678Z,1.13
2024-04-18T13:14:51.288Z,0.77
2024-04-18T13:17:20.784Z,0.70
2024-04-18T13:19:50.045Z,0.85
2024-04-18T13:22:21.898Z,0.77
2024-04-18T13:24:51.086Z,0.98
2024-04-18T13:27:26.901Z,1.00
2024-04-18T13:29:56.572Z,0.90
2024-04-18T13:32:35.274Z,0.90
2024-04-18T13:35:04.603Z,0.90
2024-04-18T13:37:36.538Z,0.80
2024-04-18T13:40:18.304Z,0.65
2024-04-18T13:43:00.173Z,0.88
2024-04-18T13:45:33.233Z,1.38
2024-04-18T13:48:03.076Z,1.30
2024-04-18T13:50:44.519Z,0.90
2024-04-18T13:53:17.108Z,1.10
2024-04-18T13:55:50.724Z,1.05
2024-04-18T13:58:21.057Z,1.05
2024-04-18T14:00:59.502Z,0.90
2024-04-18T14:03:35.083Z,1.30
2024-04-18T14:06:10.920Z,1.17
2024-04-18T14:08:41.029Z,1.20
2024-04-18T14:11:29.887Z,0.98
2024-04-18T14:14:08.672Z,1.00
2024-04-18T14:16:55.652Z,0.98
2024-04-18T14:19:37.908Z,0.93
2024-04-18T14:22:07.269Z,1.20
2024-04-18T14:24:41.086Z,1.00
2024-04-18T14:27:19.358Z,1.30
2024-04-18T14:30:03.754Z,1.15
2024-04-18T14:32:36.208Z,1.05
2024-04-18T14:35:05.566Z,1.42
2024-04-18T14:37:35.472Z,1.17
2024-04-18T14:40:10.001Z,1.20
2024-04-18T14:42:41.889Z,1.58
2024-04-18T14:45:13.205Z,1.30
2024-04-18T14:47:42.493Z,1.10
2024-04-18T14:50:13.281Z,1.20
2024-04-18T14:52:42.469Z,1.40
2024-04-18T14:55:33.027Z,1.10
2024-04-18T14:58:16.152Z,0.90
2024-04-18T15:00:51.478Z,1.00
2024-04-18T15:03:23.772Z,0.80
2024-04-18T15:05:55.301Z,0.70
2024-04-18T15:08:40.593Z,0.55
2024-04-18T15:11:28.231Z,0.65
2024-04-18T15:14:03.733Z,0.80
2024-04-18T15:16:32.937Z,1.45
2024-04-18T15:19:02.346Z,0.80
2024-04-18T15:21:52.112Z,0.85
2024-04-18T15:24:23.430Z,0.80
2024-04-18T15:27:06.065Z,0.98
2024-04-18T15:29:35.338Z,0.77
2024-04-18T15:32:24.356Z,0.70
2024-04-18T15:35:16.118Z,0.88
2024-04-18T15:38:03.878Z,0.70
2024-04-18T15:40:36.062Z,0.77
2024-04-18T15:43:07.885Z,0.82
2024-04-18T15:45:37.914Z,0.88
2024-04-18T15:48:25.451Z,0.80
2024-04-18T15:50:58.054Z,0.82
2024-04-18T15:53:31.319Z,0.82
2024-04-18T15:56:09.950Z,0.80
2024-04-18T15:59:00.708Z,0.90
2024-04-18T16:01:49.944Z,0.70
2024-04-18T16:04:38.248Z,1.10
2024-04-18T16:07:07.582Z,1.00
2024-04-18T16:09:55.090Z,0.82
2024-04-18T16:12:24.398Z,1.30
2024-04-18T16:15:05.741Z,1.23
2024-04-18T16:17:35.186Z,1.30
2024-04-18T16:20:13.556Z,1.05
2024-04-18T16:22:43.196Z,1.00
2024-04-18T16:25:32.665Z,1.00
2024-04-18T16:28:02.683Z,1.20
2024-04-18T16:30:34.531Z,0.98
2024-04-18T16:33:03.852Z,1.17
2024-04-18T16:35:33.138Z,1.25
2024-04-18T16:38:14.993Z,1.70
2024-04-18T16:40:50.441Z,1.10
2024-04-18T16:43:32.955Z,1.20
2024-04-18T16:46:06.058Z,1.38
2024-04-18T16:48:35.440Z,1.25
2024-04-18T16:51:04.759Z,1.20
2024-04-18T16:53:54.050Z,1.23
2024-04-18T16:56:23.601Z,1.20
2024-04-18T16:58:55.675Z,1.38
2024-04-18T17:01:27.481Z,1.05
2024-04-18T17:03:56.921Z,1.20
2024-04-18T17:06:41.642Z,1.30
2024-04-18T17:09:16.946Z,1.40
2024-04-18T17:11:43.614Z,1.30
2024-04-18T17:14:31.236Z,1.40
2024-04-18T17:17:03.047Z,1.30
2024-04-18T17:19:52.291Z,1.50
2024-04-18T17:22:21.870Z,1.13
2024-04-18T17:24:51.060Z,1.17
2024-04-18T17:27:20.333Z,1.38
2024-04-18T17:29:49.564Z,1.27
2024-04-18T17:32:21.496Z,1.20
2024-04-18T17:34:50.854Z,1.30
2024-04-18T17:37:42.374Z,1.42
2024-04-18T17:40:37.689Z,1.20
2024-04-18T17:43:08.521Z,1.40
2024-04-18T17:45:37.925Z,1.30
2024-04-18T17:48:18.731Z,1.30
2024-04-18T17:50:48.063Z,1.40
2024-04-18T17:53:17.286Z,1.30
2024-04-18T17:55:46.574Z,1.17
2024-04-18T17:58:16.928Z,1.33
2024-04-18T18:00:46.211Z,1.33
2024-04-18T18:03:18.132Z,1.42
2024-04-18T18:05:47.585Z,1.17
2024-04-18T18:08:31.861Z,1.35
2024-04-18T18:11:21.122Z,1.52
2024-04-18T18:13:52.221Z,1.30
2024-04-18T18:16:23.081Z,1.33
2024-04-18T18:18:55.335Z,1.15
2024-04-18T18:21:24.659Z,1.58
2024-04-18T18:23:53.892Z,1.40
2024-04-18T18:26:40.049Z,1.20
2024-04-18T18:29:09.053Z,2.00
2024-04-18T18:31:57.153Z,1.85
2024-04-18T18:34:26.445Z,1.90
2024-04-18T18:36:55.635Z,1.73
2024-04-18T18:39:22.322Z,1.30
2024-04-18T18:41:51.578Z,1.65
2024-04-18T18:44:19.008Z,2.00
2024-04-18T18:46:48.260Z,1.52
2024-04-18T18:49:15.729Z,1.50
2024-04-18T18:51:47.804Z,1.30
2024-04-18T18:54:14.541Z,1.48
2024-04-18T18:56:43.838Z,1.65
2024-04-18T18:59:29.368Z,1.85
2024-04-18T19:01:58.577Z,2.10
2024-04-18T19:04:25.322Z,1.73
2024-04-18T19:06:57.505Z,1.83
2024-04-18T19:09:24.305Z,1.90
2024-04-18T19:11:53.534Z,2.10
2024-04-18T19:14:20.334Z,1.60
2024-04-18T19:17:07.744Z,1.60
2024-04-18T19:19:34.785Z,1.65
2024-04-18T19:22:07.737Z,1.70
2024-04-18T19:24:34.448Z,2.00
2024-04-18T19:27:04.276Z,1.95
2024-04-18T19:29:40.020Z,2.28
2024-04-18T19:32:16.457Z,1.67
2024-04-18T19:34:43.113Z,2.17
2024-04-18T19:37:14.949Z,1.70
2024-04-18T19:39:41.658Z,1.95
2024-04-18T19:42:11.080Z,1.80
2024-04-18T19:44:37.784Z,1.60
2024-04-18T19:47:07.527Z,1.63
2024-04-18T19:49:35.298Z,2.00
2024-04-18T19:52:08.097Z,1.67
2024-04-18T19:54:38.400Z,1.97
2024-04-18T19:57:07.954Z,1.90
2024-04-18T19:59:36.157Z,1.85
2024-04-18T20:02:08.698Z,1.80
2024-04-18T20:04:35.515Z,1.77
2024-04-18T20:07:04.799Z,2.00
2024-04-18T20:09:32.978Z,2.00
2024-04-18T20:12:06.069Z,1.83
2024-04-18T20:14:32.740Z,2.20
2024-04-18T20:17:03.136Z,2.13
2024-04-18T20:19:29.954Z,1.90
2024-04-18T20:21:59.366Z,1.70
2024-04-18T20:24:27.920Z,1.50
2024-04-18T20:27:18.439Z,1.50
2024-04-18T20:29:45.125Z,1.67
2024-04-18T20:32:23.221Z,1.73
2024-04-18T20:34:49.953Z,1.35
2024-04-18T20:37:19.310Z,1.60
2024-04-18T20:39:46.452Z,1.52
2024-04-18T20:42:18.554Z,1.57
2024-04-18T20:45:01.096Z,2.13
2024-04-18T20:47:30.514Z,1.20
2024-04-18T20:49:57.430Z,1.40
2024-04-18T20:52:26.636Z,1.77
2024-04-18T20:54:53.316Z,1.60
2024-04-18T20:57:27.543Z,1.98
2024-04-18T20:59:54.594Z,1.57
2024-04-18T21:05:10.825Z,1.58
2024-04-18T21:07:40.201Z,2.00
2024-04-18T21:10:06.894Z,1.97
2024-04-18T21:12:38.818Z,2.22
2024-04-18T21:15:06.067Z,2.70
2024-04-18T21:17:35.373Z,2.50
2024-04-18T21:20:02.284Z,2.80
2024-04-18T21:22:31.459Z,2.60
2024-04-18T21:24:58.059Z,1.67
2024-04-18T21:27:27.288Z,1.67
2024-04-18T21:29:56.536Z,2.05
2024-04-18T21:32:25.746Z,1.75
2024-04-18T21:34:52.356Z,1.50
2024-04-18T21:37:21.551Z,1.70
2024-04-18T21:39:48.260Z,1.57
2024-04-18T21:42:17.477Z,1.58
2024-04-18T21:44:44.132Z,1.20
2024-04-18T21:47:16.007Z,1.70
2024-04-18T21:49:42.630Z,1.73
2024-04-18T21:52:11.942Z,1.60
2024-04-18T21:54:38.585Z,1.30
2024-04-18T21:57:08.555Z,1.60
2024-04-18T21:59:36.624Z,1.25
2024-04-18T22:02:06.080Z,1.20
2024-04-18T22:04:35.309Z,1.42
2024-04-18T22:07:09.072Z,1.13
2024-04-18T22:09:35.717Z,1.10
2024-04-18T22:12:04.994Z,1.42
2024-04-18T22:14:31.951Z,1.60
2024-04-18T22:17:01.136Z,1.63
2024-04-18T22:19:27.826Z,1.77
2024-04-18T22:21:59.718Z,2.13
2024-04-18T22:24:26.418Z,2.55
2024-04-18T22:26:55.631Z,1.92
2024-04-18T22:29:22.266Z,1.90
2024-04-18T22:31:51.524Z,2.20
2024-04-18T22:34:25.003Z,1.90
2024-04-18T22:37:03.304Z,2.20
2024-04-18T22:39:30.060Z,2.10
2024-04-18T22:41:59.254Z,2.22
2024-04-18T22:44:25.895Z,2.55
2024-04-18T22:46:55.135Z,2.15
2024-04-18T22:49:21.824Z,2.20
2024-04-18T22:51:51.092Z,2.10
2024-04-18T22:54:20.363Z,2.00
2024-04-18T22:57:07.918Z,2.20
2024-04-18T22:59:34.538Z,2.25
2024-04-18T23:02:03.989Z,2.35
2024-04-18T23:04:30.876Z,2.08
2024-04-18T23:07:00.620Z,1.95
2024-04-18T23:09:29.886Z,2.30
2024-04-18T23:11:59.064Z,1.87
2024-04-18T23:14:25.659Z,2.17
2024-04-18T23:16:54.888Z,2.25
2024-04-18T23:19:21.498Z,1.80
2024-04-18T23:21:50.774Z,2.17
2024-04-18T23:24:41.752Z,1.95
2024-04-18T23:27:08.427Z,2.30
2024-04-18T23:29:37.687Z,2.00
2024-04-18T23:32:04.767Z,1.80
2024-04-18T23:34:34.006Z,2.35
2024-04-18T23:37:00.634Z,2.47
2024-04-18T23:39:29.898Z,1.80
2024-04-18T23:41:59.469Z,2.10
2024-04-18T23:44:28.648Z,2.58
2024-04-18T23:46:55.311Z,2.58
2024-04-18T23:49:24.493Z,2.63
2024-04-18T23:51:51.153Z,2.47
2024-04-18T23:54:20.440Z,2.30
2024-04-18T23:56:47.094Z,2.35
2024-04-18T23:59:18.882Z,2.53
